Time;durP1;ratioP1;P1;durP2;ratioP2;P2;SDS_P1;SDS_P2;PMS_P1;PMS_P2;Temp;Humidity;BMP_temperature;BMP_pressure;BME280_temperature;BME280_humidity;BME280_pressure;Samples;Min_cycle;Max_cycle;Signal;HPM_P1;HPM_P2
2022/12/16 00:01:57;;;;;;;37.00;18.70;;;1.70;99.90;;;;;;5067090;28;20049;-35
2022/12/16 00:04:23;;;;;;;30.30;16.00;;;1.70;99.90;;;;;;5061208;28;20041;-32
2022/12/16 00:06:48;;;;;;;36.60;16.75;;;1.70;99.90;;;;;;5053266;28;20428;-31
2022/12/16 00:09:14;;;;;;;44.15;15.45;;;1.80;99.90;;;;;;5056500;28;20039;-34
2022/12/16 00:11:40;;;;;;;38.30;15.45;;;1.70;99.90;;;;;;5056097;28;20513;-39
2022/12/16 00:14:05;;;;;;;27.15;13.50;;;1.70;99.90;;;;;;5065357;28;20032;-33
2022/12/16 00:16:31;;;;;;;27.92;12.88;;;1.70;99.90;;;;;;5068049;28;20045;-35
2022/12/16 00:18:56;;;;;;;28.73;13.95;;;1.60;99.90;;;;;;5064983;28;20109;-33
2022/12/16 00:21:27;;;;;;;29.70;12.70;;;1.60;99.90;;;;;;5053636;28;20052;-35
2022/12/16 00:23:53;;;;;;;35.03;14.77;;;1.60;99.90;;;;;;5057359;28;20028;-36
2022/12/16 00:26:18;;;;;;;23.67;11.65;;;1.60;99.90;;;;;;5057611;28;20486;-36
2022/12/16 00:28:44;;;;;;;30.60;13.20;;;1.60;99.90;;;;;;5073495;28;20101;-37
2022/12/16 00:31:10;;;;;;;25.48;11.75;;;1.60;99.90;;;;;;5073452;28;20025;-37
2022/12/16 00:33:36;;;;;;;24.67;12.32;;;1.60;99.90;;;;;;5060763;28;20491;-36
2022/12/16 00:36:02;;;;;;;19.20;9.75;;;1.60;99.90;;;;;;5070621;28;20033;-48
2022/12/16 00:38:27;;;;;;;17.20;9.50;;;1.60;99.90;;;;;;5067688;28;20021;-34
2022/12/16 00:40:53;;;;;;;21.10;9.80;;;1.60;99.90;;;;;;5053100;28;20040;-32
2022/12/16 00:43:19;;;;;;;23.30;10.13;;;1.60;99.90;;;;;;5067099;28;20036;-34
2022/12/16 00:45:45;;;;;;;18.83;8.10;;;1.60;99.90;;;;;;5071914;28;20526;-32
2022/12/16 00:48:14;;;;;;;13.18;6.82;;;1.60;99.90;;;;;;5070101;28;20017;-32
2022/12/16 00:50:40;;;;;;;12.65;6.78;;;1.70;99.90;;;;;;5055428;28;20036;-50
2022/12/16 00:53:05;;;;;;;14.30;6.25;;;1.80;99.90;;;;;;5051480;28;20035;-34
2022/12/16 00:55:31;;;;;;;13.00;6.25;;;2.00;99.90;;;;;;5053822;28;20021;-34
2022/12/16 00:57:57;;;;;;;13.32;5.60;;;2.10;99.90;;;;;;5051465;28;20028;-36
2022/12/16 01:00:23;;;;;;;11.52;5.18;;;2.10;99.90;;;;;;5052239;28;20381;-36
2022/12/16 01:02:50;;;;;;;9.85;5.10;;;2.10;99.90;;;;;;5051939;28;20025;-33
2022/12/16 01:05:19;;;;;;;19.08;5.60;;;2.10;99.90;;;;;;5051283;28;20412;-33
2022/12/16 01:07:45;;;;;;;14.20;5.05;;;2.10;99.90;;;;;;5057443;28;20031;-36
2022/12/16 01:10:11;;;;;;;9.45;5.22;;;2.10;99.90;;;;;;5055244;28;20032;-35
2022/12/16 01:12:37;;;;;;;10.05;4.88;;;2.10;99.90;;;;;;5053432;28;20025;-34
2022/12/16 01:15:07;;;;;;;5.93;3.83;;;2.10;99.90;;;;;;5053224;28;20485;-37
2022/12/16 01:17:34;;;;;;;11.52;4.32;;;2.20;99.90;;;;;;5054904;28;20017;-35
2022/12/16 01:20:00;;;;;;;7.20;4.05;;;2.10;99.90;;;;;;5061510;28;20123;-32
2022/12/16 01:22:28;;;;;;;8.75;4.90;;;2.10;99.90;;;;;;5065579;28;20056;-33
2022/12/16 01:24:53;;;;;;;12.98;4.70;;;1.90;99.90;;;;;;5054903;28;20469;-34
2022/12/16 01:27:19;;;;;;;6.40;3.92;;;1.90;99.90;;;;;;5057325;28;20028;-37
2022/12/16 01:29:44;;;;;;;12.02;4.22;;;1.90;99.90;;;;;;5056150;28;20035;-36
2022/12/16 01:32:13;;;;;;;5.28;3.25;;;1.90;99.90;;;;;;5058143;28;20400;-34
2022/12/16 01:34:39;;;;;;;8.10;4.18;;;2.00;99.90;;;;;;5059265;28;20378;-32
2022/12/16 01:37:05;;;;;;;12.32;3.20;;;2.00;99.90;;;;;;5059958;28;20090;-42
2022/12/16 01:39:30;;;;;;;4.35;2.80;;;2.10;99.90;;;;;;5060122;28;20029;-37
2022/12/16 01:41:56;;;;;;;4.78;3.20;;;2.20;99.90;;;;;;5061355;28;20027;-35
2022/12/16 01:44:24;;;;;;;5.63;3.25;;;2.30;99.90;;;;;;5059720;28;20028;-32
2022/12/16 01:47:03;;;;;;;7.10;2.80;;;2.30;99.90;;;;;;5055981;28;20459;-37
2022/12/16 01:49:31;;;;;;;7.22;3.08;;;2.40;99.90;;;;;;5058533;28;20028;-37
2022/12/16 01:52:00;;;;;;;;;;;2.40;99.90;;;;;;5058213;28;20036;-36
2022/12/16 01:54:48;;;;;;;5.47;2.55;;;2.50;99.90;;;;;;5060631;28;19916;-34
2022/12/16 01:57:20;;;;;;;4.82;2.15;;;2.50;99.90;;;;;;5057878;28;21573;-62
2022/12/16 01:59:49;;;;;;;3.13;2.10;;;2.50;99.90;;;;;;5059398;28;20599;-71
2022/12/16 02:02:17;;;;;;;7.47;2.05;;;2.50;99.90;;;;;;5058730;28;20025;-33
2022/12/16 02:07:27;;;;;;;6.63;2.75;;;2.50;99.90;;;;;;5060375;28;20039;-41
2022/12/16 02:09:53;;;;;;;5.53;2.35;;;2.60;99.90;;;;;;5059056;28;20024;-39
2022/12/16 02:12:32;;;;;;;3.45;1.80;;;2.60;99.90;;;;;;5063595;28;20028;-32
2022/12/16 02:15:11;;;;;;;4.85;2.60;;;2.60;99.90;;;;;;5061983;28;20033;-32
2022/12/16 02:17:59;;;;;;;5.93;1.90;;;2.70;99.90;;;;;;5064596;28;20107;-40
2022/12/16 02:20:52;;;;;;;7.43;3.03;;;2.70;99.90;;;;;;5062184;28;20036;-41
2022/12/16 02:23:42;;;;;;;3.78;2.22;;;2.70;99.90;;;;;;5066529;28;20520;-39
2022/12/16 02:26:38;;;;;;;6.57;2.83;;;2.70;99.90;;;;;;5070053;28;20054;-56
2022/12/16 02:29:25;;;;;;;6.13;2.35;;;2.70;99.90;;;;;;5064620;28;20457;-32
2022/12/16 02:32:07;;;;;;;4.73;2.33;;;2.70;99.90;;;;;;5056107;28;20151;-33
2022/12/16 02:34:41;;;;;;;7.82;2.78;;;2.70;99.90;;;;;;5065855;28;20484;-32
2022/12/16 02:37:55;;;;;;;7.50;2.72;;;2.60;99.90;;;;;;5075665;28;20027;-32
2022/12/16 02:40:37;;;;;;;8.35;2.92;;;2.60;99.90;;;;;;5073368;28;20036;-34
2022/12/16 02:43:09;;;;;;;7.95;2.55;;;2.60;99.90;;;;;;5074795;28;20550;-34
2022/12/16 02:45:36;;;;;;;7.75;3.33;;;2.50;99.90;;;;;;5058206;28;20081;-41
2022/12/16 02:48:02;;;;;;;7.57;2.75;;;2.50;99.90;;;;;;5053165;28;20024;-39
2022/12/16 02:50:49;;;;;;;5.35;2.33;;;2.50;99.90;;;;;;5054033;28;20044;-32
2022/12/16 02:53:17;;;;;;;4.13;2.45;;;2.50;99.90;;;;;;5064096;28;20394;-37
2022/12/16 02:55:57;;;;;;;11.60;2.92;;;2.50;99.90;;;;;;5064573;28;20078;-33
2022/12/16 02:59:01;;;;;;;2.70;2.22;;;2.50;99.90;;;;;;5069346;28;20033;-52
2022/12/16 03:01:40;;;;;;;3.42;2.05;;;2.50;99.90;;;;;;5055238;28;20431;-32
2022/12/16 03:04:20;;;;;;;11.88;2.60;;;2.60;99.90;;;;;;5052908;28;20536;-41
2022/12/16 03:06:49;;;;;;;5.93;2.60;;;2.60;99.90;;;;;;5056782;28;20021;-41
2022/12/16 03:09:20;;;;;;;10.95;3.80;;;2.60;99.90;;;;;;5060461;28;20480;-42
2022/12/16 03:11:48;;;;;;;7.20;3.35;;;2.50;99.90;;;;;;5075036;28;20071;-42
2022/12/16 03:14:15;;;;;;;;;;;2.50;99.90;;;;;;5075460;28;20020;-39
2022/12/16 03:16:43;;;;;;;3.70;2.15;;;2.50;99.90;;;;;;5062530;28;20011;-42
2022/12/16 03:19:11;;;;;;;10.27;2.90;;;2.60;99.90;;;;;;5054568;28;20032;-37
2022/12/16 03:21:51;;;;;;;10.55;2.85;;;2.60;99.90;;;;;;5065103;28;20447;-35
2022/12/16 03:24:16;;;;;;;5.00;2.97;;;2.60;99.90;;;;;;5053737;28;20504;-37
2022/12/16 03:26:52;;;;;;;5.63;2.28;;;2.70;99.90;;;;;;5068280;28;20021;-43
2022/12/16 03:29:34;;;;;;;7.55;3.17;;;2.70;99.90;;;;;;5073649;28;20472;-35
2022/12/16 03:32:10;;;;;;;8.40;3.00;;;2.70;99.90;;;;;;5061591;28;20485;-42
2022/12/16 03:34:45;;;;;;;12.32;3.53;;;2.70;99.90;;;;;;5064107;28;20500;-44
2022/12/16 03:37:12;;;;;;;6.57;3.03;;;2.60;99.90;;;;;;5073535;28;20024;-42
2022/12/16 03:39:43;;;;;;;5.07;2.72;;;2.60;99.90;;;;;;5067581;28;20028;-40
2022/12/16 03:42:10;;;;;;;4.18;2.33;;;2.60;99.90;;;;;;5064370;28;20033;-44
2022/12/16 03:44:36;;;;;;;5.07;2.33;;;2.60;99.90;;;;;;5068451;28;20457;-40
2022/12/16 03:47:02;;;;;;;6.90;2.75;;;2.60;99.90;;;;;;5067796;28;20453;-42
2022/12/16 03:49:27;;;;;;;6.70;3.45;;;2.60;99.90;;;;;;5053387;28;20036;-41
2022/12/16 03:51:55;;;;;;;10.65;3.15;;;2.60;99.90;;;;;;5059173;28;20099;-33
2022/12/16 03:54:20;;;;;;;13.00;3.60;;;2.60;99.90;;;;;;5055884;28;20044;-51
2022/12/16 03:56:46;;;;;;;8.15;2.78;;;2.60;99.90;;;;;;5064361;28;20079;-41
2022/12/16 03:59:12;;;;;;;6.45;3.28;;;2.50;99.90;;;;;;5056331;28;20052;-39
2022/12/16 04:01:38;;;;;;;5.03;2.70;;;2.50;99.90;;;;;;5070078;28;20473;-40
2022/12/16 04:04:05;;;;;;;6.07;2.88;;;2.50;99.90;;;;;;5071237;28;20610;-40
2022/12/16 04:06:30;;;;;;;5.05;3.58;;;2.50;99.90;;;;;;5070539;28;20017;-41
2022/12/16 04:08:56;;;;;;;5.45;2.70;;;2.50;99.90;;;;;;5066068;28;20507;-34
2022/12/16 04:25:14;;;;;;;4.05;2.03;;;2.30;99.90;;;;;;5065108;28;20518;-34
2022/12/16 04:27:45;;;;;;;5.93;2.75;;;2.20;99.90;;;;;;5071200;28;20071;-34
2022/12/16 04:30:18;;;;;;;7.35;3.03;;;2.20;99.90;;;;;;5069202;28;20107;-32
